sensor_id;sensor_type;location;lat;lon;timestamp;pressure;altitude;pressure_sealevel;temperature;humidity
48644;BME280;34928;37.302;-121.984;2023-05-02T00:08:14;100348.0;;;26.78;24.17
48644;BME280;34928;37.302;-121.984;2023-05-02T00:18:18;100341.0;;;26.81;24.03
48644;BME280;34928;37.302;-121.984;2023-05-02T00:28:23;100329.0;;;26.84;24.20
48644;BME280;34928;37.302;-121.984;2023-05-02T00:38:27;100327.0;;;26.45;24.30
48644;BME280;34928;37.302;-121.984;2023-05-02T00:48:32;100328.0;;;26.27;24.40
48644;BME280;34928;37.302;-121.984;2023-05-02T00:58:38;100324.0;;;26.21;24.43
48644;BME280;34928;37.302;-121.984;2023-05-02T01:08:49;100309.0;;;26.21;24.37
48644;BME280;34928;37.302;-121.984;2023-05-02T01:18:59;100297.0;;;26.41;24.16
48644;BME280;34928;37.302;-121.984;2023-05-02T01:29:08;100295.0;;;26.42;23.42
48644;BME280;34928;37.302;-121.984;2023-05-02T01:39:18;100286.0;;;26.12;23.44
48644;BME280;34928;37.302;-121.984;2023-05-02T01:49:24;100288.0;;;26.01;23.51
48644;BME280;34928;37.302;-121.984;2023-05-02T01:59:33;100282.0;;;25.89;23.94
48644;BME280;34928;37.302;-121.984;2023-05-02T02:09:37;100282.0;;;25.77;24.22
48644;BME280;34928;37.302;-121.984;2023-05-02T02:19:42;100278.0;;;26.24;24.20
48644;BME280;34928;37.302;-121.984;2023-05-02T02:29:47;100272.0;;;26.34;24.06
48644;BME280;34928;37.302;-121.984;2023-05-02T02:40:02;100263.0;;;26.34;23.98
48644;BME280;34928;37.302;-121.984;2023-05-02T02:50:17;100258.0;;;26.24;24.31
48644;BME280;34928;37.302;-121.984;2023-05-02T03:00:25;100262.0;;;26.14;24.32
48644;BME280;34928;37.302;-121.984;2023-05-02T03:10:32;100257.0;;;26.19;24.31
48644;BME280;34928;37.302;-121.984;2023-05-02T03:20:38;100257.0;;;26.24;24.52
48644;BME280;34928;37.302;-121.984;2023-05-02T03:30:43;100252.0;;;25.91;24.64
48644;BME280;34928;37.302;-121.984;2023-05-02T03:40:49;100253.0;;;26.12;25.10
48644;BME280;34928;37.302;-121.984;2023-05-02T03:50:55;100258.0;;;25.75;25.32
48644;BME280;34928;37.302;-121.984;2023-05-02T04:00:58;100266.0;;;25.85;25.48
48644;BME280;34928;37.302;-121.984;2023-05-02T04:11:04;100267.0;;;25.93;25.42
48644;BME280;34928;37.302;-121.984;2023-05-02T04:21:08;100258.0;;;25.36;25.43
48644;BME280;34928;37.302;-121.984;2023-05-02T04:31:13;100265.0;;;25.78;25.42
48644;BME280;34928;37.302;-121.984;2023-05-02T04:41:18;100278.0;;;25.37;25.50
48644;BME280;34928;37.302;-121.984;2023-05-02T04:51:23;100274.0;;;25.25;25.33
48644;BME280;34928;37.302;-121.984;2023-05-02T05:01:27;100267.0;;;25.17;25.24
48644;BME280;34928;37.302;-121.984;2023-05-02T05:11:34;100266.0;;;25.71;25.12
48644;BME280;34928;37.302;-121.984;2023-05-02T05:21:38;100256.0;;;25.67;24.74
48644;BME280;34928;37.302;-121.984;2023-05-02T05:31:42;100255.0;;;25.65;24.52
48644;BME280;34928;37.302;-121.984;2023-05-02T05:41:47;100246.0;;;25.77;24.92
48644;BME280;34928;37.302;-121.984;2023-05-02T05:51:58;100243.0;;;25.05;25.25
48644;BME280;34928;37.302;-121.984;2023-05-02T06:02:03;100238.0;;;25.49;25.39
48644;BME280;34928;37.302;-121.984;2023-05-02T06:12:08;100239.0;;;25.28;25.73
48644;BME280;34928;37.302;-121.984;2023-05-02T06:22:13;100237.0;;;25.51;25.53
48644;BME280;34928;37.302;-121.984;2023-05-02T06:32:18;100239.0;;;25.05;25.35
48644;BME280;34928;37.302;-121.984;2023-05-02T06:42:23;100247.0;;;25.34;25.41
48644;BME280;34928;37.302;-121.984;2023-05-02T06:52:29;100248.0;;;25.47;25.20
48644;BME280;34928;37.302;-121.984;2023-05-02T07:02:32;100239.0;;;25.77;25.11
48644;BME280;34928;37.302;-121.984;2023-05-02T07:12:38;100234.0;;;25.46;25.18
48644;BME280;34928;37.302;-121.984;2023-05-02T07:22:43;100236.0;;;25.22;25.35
48644;BME280;34928;37.302;-121.984;2023-05-02T07:32:47;100231.0;;;25.25;25.29
48644;BME280;34928;37.302;-121.984;2023-05-02T07:42:54;100219.0;;;25.81;25.27
48644;BME280;34928;37.302;-121.984;2023-05-02T07:52:59;100216.0;;;25.35;25.65
48644;BME280;34928;37.302;-121.984;2023-05-02T08:03:03;100207.0;;;26.36;25.48
48644;BME280;34928;37.302;-121.984;2023-05-02T08:13:07;100196.0;;;27.61;24.38
48644;BME280;34928;37.302;-121.984;2023-05-02T08:23:13;100190.0;;;27.05;24.10
48644;BME280;34928;37.302;-121.984;2023-05-02T08:33:18;100181.0;;;26.32;24.38
48644;BME280;34928;37.302;-121.984;2023-05-02T08:43:23;100179.0;;;26.27;24.66
48644;BME280;34928;37.302;-121.984;2023-05-02T08:53:28;100178.0;;;26.05;24.85
48644;BME280;34928;37.302;-121.984;2023-05-02T09:03:35;100170.0;;;26.12;24.92
48644;BME280;34928;37.302;-121.984;2023-05-02T09:13:39;100174.0;;;26.15;24.99
48644;BME280;34928;37.302;-121.984;2023-05-02T09:23:45;100182.0;;;25.57;25.02
48644;BME280;34928;37.302;-121.984;2023-05-02T09:33:53;100176.0;;;25.48;25.34
48644;BME280;34928;37.302;-121.984;2023-05-02T09:43:57;100174.0;;;25.47;25.29
48644;BME280;34928;37.302;-121.984;2023-05-02T09:54:03;100171.0;;;25.33;25.56
48644;BME280;34928;37.302;-121.984;2023-05-02T10:04:15;100163.0;;;25.29;25.66
48644;BME280;34928;37.302;-121.984;2023-05-02T10:14:24;100167.0;;;25.08;25.53
48644;BME280;34928;37.302;-121.984;2023-05-02T10:24:28;100165.0;;;25.29;25.51
48644;BME280;34928;37.302;-121.984;2023-05-02T10:34:39;100175.0;;;24.97;25.54
48644;BME280;34928;37.302;-121.984;2023-05-02T10:44:49;100173.0;;;25.33;25.46
48644;BME280;34928;37.302;-121.984;2023-05-02T10:54:54;100167.0;;;25.25;25.19
48644;BME280;34928;37.302;-121.984;2023-05-02T11:05:13;100158.0;;;25.41;25.17
48644;BME280;34928;37.302;-121.984;2023-05-02T11:25:48;100161.0;;;25.09;25.16
48644;BME280;34928;37.302;-121.984;2023-05-02T11:35:58;100158.0;;;25.09;25.26
48644;BME280;34928;37.302;-121.984;2023-05-02T11:46:05;100153.0;;;24.88;25.37
48644;BME280;34928;37.302;-121.984;2023-05-02T11:56:13;100150.0;;;24.77;25.42
48644;BME280;34928;37.302;-121.984;2023-05-02T12:06:18;100149.0;;;25.08;25.23
48644;BME280;34928;37.302;-121.984;2023-05-02T12:16:27;100155.0;;;24.78;25.26
48644;BME280;34928;37.302;-121.984;2023-05-02T12:26:32;100162.0;;;24.74;25.24
48644;BME280;34928;37.302;-121.984;2023-05-02T12:36:43;100168.0;;;24.90;25.27
48644;BME280;34928;37.302;-121.984;2023-05-02T12:57:09;100168.0;;;24.71;25.47
48644;BME280;34928;37.302;-121.984;2023-05-02T13:07:12;100173.0;;;25.62;24.91
48644;BME280;34928;37.302;-121.984;2023-05-02T13:17:18;100173.0;;;26.30;24.21
48644;BME280;34928;37.302;-121.984;2023-05-02T13:27:23;100177.0;;;27.11;23.22
48644;BME280;34928;37.302;-121.984;2023-05-02T13:37:28;100186.0;;;27.59;22.57
48644;BME280;34928;37.302;-121.984;2023-05-02T13:47:33;100201.0;;;27.53;22.90
48644;BME280;34928;37.302;-121.984;2023-05-02T13:57:38;100209.0;;;26.91;23.20
48644;BME280;34928;37.302;-121.984;2023-05-02T14:07:43;100223.0;;;26.65;23.57
48644;BME280;34928;37.302;-121.984;2023-05-02T14:17:49;100236.0;;;26.06;24.70
48644;BME280;34928;37.302;-121.984;2023-05-02T14:27:53;100243.0;;;25.92;25.66
48644;BME280;34928;37.302;-121.984;2023-05-02T14:37:58;100248.0;;;25.65;25.41
48644;BME280;34928;37.302;-121.984;2023-05-02T14:48:03;100259.0;;;26.18;25.61
48644;BME280;34928;37.302;-121.984;2023-05-02T14:58:08;100270.0;;;25.76;25.47
48644;BME280;34928;37.302;-121.984;2023-05-02T15:08:12;100277.0;;;25.08;25.60
48644;BME280;34928;37.302;-121.984;2023-05-02T15:18:18;100274.0;;;24.61;25.95
48644;BME280;34928;37.302;-121.984;2023-05-02T15:28:23;100292.0;;;24.66;26.18
48644;BME280;34928;37.302;-121.984;2023-05-02T15:38:28;100288.0;;;24.92;26.01
48644;BME280;34928;37.302;-121.984;2023-05-02T15:48:33;100290.0;;;24.96;25.84
48644;BME280;34928;37.302;-121.984;2023-05-02T15:58:38;100291.0;;;24.80;25.73
48644;BME280;34928;37.302;-121.984;2023-05-02T16:08:42;100292.0;;;24.84;25.57
48644;BME280;34928;37.302;-121.984;2023-05-02T16:18:48;100298.0;;;24.91;25.43
48644;BME280;34928;37.302;-121.984;2023-05-02T16:28:53;100298.0;;;25.15;25.30
48644;BME280;34928;37.302;-121.984;2023-05-02T16:38:58;100299.0;;;24.83;25.35
48644;BME280;34928;37.302;-121.984;2023-05-02T16:49:02;100299.0;;;25.02;25.10
48644;BME280;34928;37.302;-121.984;2023-05-02T16:59:08;100284.0;;;25.21;25.11
48644;BME280;34928;37.302;-121.984;2023-05-02T17:09:12;100291.0;;;25.00;25.04
48644;BME280;34928;37.302;-121.984;2023-05-02T17:19:19;100301.0;;;24.65;25.37
48644;BME280;34928;37.302;-121.984;2023-05-02T17:29:22;100310.0;;;24.98;25.22
48644;BME280;34928;37.302;-121.984;2023-05-02T17:39:28;100306.0;;;25.10;25.23
48644;BME280;34928;37.302;-121.984;2023-05-02T17:49:33;100307.0;;;25.12;25.23
48644;BME280;34928;37.302;-121.984;2023-05-02T17:59:39;100310.0;;;25.25;25.16
48644;BME280;34928;37.302;-121.984;2023-05-02T18:09:43;100308.0;;;24.82;25.40
48644;BME280;34928;37.302;-121.984;2023-05-02T18:19:48;100320.0;;;25.24;25.19
48644;BME280;34928;37.302;-121.984;2023-05-02T18:29:53;100324.0;;;25.02;25.15
48644;BME280;34928;37.302;-121.984;2023-05-02T18:39:58;100325.0;;;25.29;25.16
48644;BME280;34928;37.302;-121.984;2023-05-02T18:50:03;100325.0;;;25.06;25.12
48644;BME280;34928;37.302;-121.984;2023-05-02T19:00:08;100326.0;;;25.35;25.14
48644;BME280;34928;37.302;-121.984;2023-05-02T19:10:13;100315.0;;;25.33;25.16
48644;BME280;34928;37.302;-121.984;2023-05-02T19:20:19;100315.0;;;25.29;24.99
48644;BME280;34928;37.302;-121.984;2023-05-02T19:30:22;100313.0;;;25.13;25.21
48644;BME280;34928;37.302;-121.984;2023-05-02T19:40:27;100314.0;;;25.67;24.93
48644;BME280;34928;37.302;-121.984;2023-05-02T19:50:34;100325.0;;;25.65;24.77
48644;BME280;34928;37.302;-121.984;2023-05-02T20:00:38;100315.0;;;25.57;24.86
48644;BME280;34928;37.302;-121.984;2023-05-02T20:10:43;100306.0;;;25.76;24.80
48644;BME280;34928;37.302;-121.984;2023-05-02T20:20:48;100306.0;;;25.81;24.75
48644;BME280;34928;37.302;-121.984;2023-05-02T20:30:52;100305.0;;;25.59;24.78
48644;BME280;34928;37.302;-121.984;2023-05-02T20:40:57;100296.0;;;25.59;25.01
48644;BME280;34928;37.302;-121.984;2023-05-02T20:51:02;100288.0;;;25.78;24.87
48644;BME280;34928;37.302;-121.984;2023-05-02T21:01:07;100282.0;;;25.57;24.96
48644;BME280;34928;37.302;-121.984;2023-05-02T21:11:14;100277.0;;;25.63;24.90
48644;BME280;34928;37.302;-121.984;2023-05-02T21:21:18;100272.0;;;25.81;24.69
48644;BME280;34928;37.302;-121.984;2023-05-02T21:31:24;100261.0;;;26.03;24.40
48644;BME280;34928;37.302;-121.984;2023-05-02T21:41:27;100262.0;;;26.12;24.61
48644;BME280;34928;37.302;-121.984;2023-05-02T21:51:32;100258.0;;;25.91;24.59
48644;BME280;34928;37.302;-121.984;2023-05-02T22:01:38;100265.0;;;26.33;24.39
48644;BME280;34928;37.302;-121.984;2023-05-02T22:11:42;100273.0;;;25.77;24.35
48644;BME280;34928;37.302;-121.984;2023-05-02T22:21:48;100278.0;;;26.11;24.02
48644;BME280;34928;37.302;-121.984;2023-05-02T22:31:52;100288.0;;;26.44;23.80
48644;BME280;34928;37.302;-121.984;2023-05-02T22:41:58;100284.0;;;26.37;23.75
48644;BME280;34928;37.302;-121.984;2023-05-02T22:52:03;100300.0;;;26.36;23.80
48644;BME280;34928;37.302;-121.984;2023-05-02T23:02:09;100286.0;;;26.45;23.69
48644;BME280;34928;37.302;-121.984;2023-05-02T23:12:13;100284.0;;;26.36;23.74
48644;BME280;34928;37.302;-121.984;2023-05-02T23:22:18;100289.0;;;26.19;23.77
48644;BME280;34928;37.302;-121.984;2023-05-02T23:32:23;100294.0;;;26.66;23.57
48644;BME280;34928;37.302;-121.984;2023-05-02T23:42:28;100291.0;;;26.89;23.42
48644;BME280;34928;37.302;-121.984;2023-05-02T23:52:33;100284.0;;;26.61;23.37
